createdAt,value
2019-02-15T00:00:08.829Z,1051.74
2019-02-15T00:01:08.809Z,1051.78
2019-02-15T00:02:08.790Z,1051.76
2019-02-15T00:03:08.775Z,1051.78
2019-02-15T00:04:08.759Z,1051.78
2019-02-15T00:05:08.741Z,1051.74
2019-02-15T00:06:08.725Z,1051.76
2019-02-15T00:07:08.711Z,1051.76
2019-02-15T00:08:08.692Z,1051.78
2019-02-15T00:09:08.675Z,1051.77
2019-02-15T00:10:08.659Z,1051.79
2019-02-15T00:11:08.642Z,1051.8
2019-02-15T00:12:08.626Z,1051.8
2019-02-15T00:13:13.413Z,1051.78
2019-02-15T00:14:08.590Z,1051.75
2019-02-15T00:15:08.575Z,1051.75
2019-02-15T00:16:08.558Z,1051.76
2019-02-15T00:17:08.542Z,1051.78
2019-02-15T00:18:08.526Z,1051.76
2019-02-15T00:19:08.509Z,1051.73
2019-02-15T00:20:08.491Z,1051.76
2019-02-15T00:21:08.475Z,1051.76
2019-02-15T00:22:08.464Z,1051.76
2019-02-15T00:23:08.440Z,1051.81
2019-02-15T00:24:08.423Z,1051.81
2019-02-15T00:25:08.406Z,1051.79
2019-02-15T00:26:08.391Z,1051.75
2019-02-15T00:27:08.375Z,1051.77
2019-02-15T00:28:08.359Z,1051.77
2019-02-15T00:29:08.339Z,1051.75
2019-02-15T00:30:08.325Z,1051.77
2019-02-15T00:31:08.309Z,1051.77
2019-02-15T00:32:08.289Z,1051.72
2019-02-15T00:33:08.274Z,1051.73
2019-02-15T00:34:08.257Z,1051.78
2019-02-15T00:35:08.237Z,1051.75
2019-02-15T00:36:08.222Z,1051.76
2019-02-15T00:37:08.211Z,1051.78
2019-02-15T00:38:08.188Z,1051.77
2019-02-15T00:39:08.172Z,1051.76
2019-02-15T00:40:08.155Z,1051.76
2019-02-15T00:41:08.138Z,1051.75
2019-02-15T00:42:08.120Z,1051.76
2019-02-15T00:43:08.104Z,1051.76
2019-02-15T00:44:08.087Z,1051.75
2019-02-15T00:45:08.072Z,1051.74
2019-02-15T00:46:08.054Z,1051.7
2019-02-15T00:47:08.037Z,1051.66
2019-02-15T00:48:08.020Z,1051.7
2019-02-15T00:49:08.003Z,1051.67
2019-02-15T00:50:07.986Z,1051.69
2019-02-15T00:51:07.970Z,1051.64
2019-02-15T00:52:07.953Z,1051.64
2019-02-15T00:53:07.938Z,1051.65
2019-02-15T00:54:07.927Z,1051.66
2019-02-15T00:55:07.903Z,1051.63
2019-02-15T00:56:07.897Z,1051.62
2019-02-15T00:57:07.871Z,1051.62
2019-02-15T00:58:07.853Z,1051.62
2019-02-15T00:59:07.835Z,1051.63
2019-02-15T01:00:07.872Z,1051.62
2019-02-15T01:01:07.801Z,1051.63
2019-02-15T01:02:07.785Z,1051.6
2019-02-15T01:03:07.767Z,1051.59
2019-02-15T01:04:07.751Z,1051.62
2019-02-15T01:05:07.734Z,1051.63
2019-02-15T01:06:07.717Z,1051.6
2019-02-15T01:07:07.701Z,1051.65
2019-02-15T01:08:07.683Z,1051.65
2019-02-15T01:09:07.667Z,1051.63
2019-02-15T01:10:07.651Z,1051.63
2019-02-15T01:11:07.634Z,1051.62
2019-02-15T01:12:07.615Z,1051.59
2019-02-15T01:13:07.601Z,1051.58
2019-02-15T01:14:07.583Z,1051.6
2019-02-15T01:15:07.565Z,1051.56
2019-02-15T01:16:07.555Z,1051.56
2019-02-15T01:17:07.532Z,1051.59
2019-02-15T01:18:07.516Z,1051.61
2019-02-15T01:19:07.500Z,1051.6
2019-02-15T01:20:07.482Z,1051.63
2019-02-15T01:21:07.466Z,1051.65
2019-02-15T01:22:07.448Z,1051.64
2019-02-15T01:23:07.435Z,1051.63
2019-02-15T01:24:07.416Z,1051.6
2019-02-15T01:25:07.398Z,1051.6
2019-02-15T01:26:07.379Z,1051.6
2019-02-15T01:27:07.364Z,1051.58
2019-02-15T01:28:07.347Z,1051.56
2019-02-15T01:29:07.331Z,1051.56
2019-02-15T01:30:07.323Z,1051.58
2019-02-15T01:31:07.297Z,1051.52
2019-02-15T01:32:07.280Z,1051.54
2019-02-15T01:33:07.262Z,1051.52
2019-02-15T01:34:07.246Z,1051.52
2019-02-15T01:35:07.230Z,1051.47
2019-02-15T01:36:07.213Z,1051.49
2019-02-15T01:37:07.194Z,1051.46
2019-02-15T01:38:07.180Z,1051.47
2019-02-15T01:39:07.163Z,1051.44
2019-02-15T01:40:07.146Z,1051.44
2019-02-15T01:41:07.128Z,1051.43
2019-02-15T01:42:07.111Z,1051.4
2019-02-15T01:43:07.095Z,1051.41
2019-02-15T01:44:07.078Z,1051.41
2019-02-15T01:45:07.066Z,1051.36
2019-02-15T01:46:07.052Z,1051.39
2019-02-15T01:47:07.034Z,1051.37
2019-02-15T01:48:07.011Z,1051.32
2019-02-15T01:49:06.996Z,1051.3
2019-02-15T01:50:06.976Z,1051.34
2019-02-15T01:51:07.014Z,1051.33
2019-02-15T01:52:06.944Z,1051.36
2019-02-15T01:53:06.927Z,1051.35
2019-02-15T01:54:06.911Z,1051.31
2019-02-15T01:55:06.901Z,1051.31
2019-02-15T01:56:06.877Z,1051.32
2019-02-15T01:57:06.862Z,1051.37
2019-02-15T01:58:06.843Z,1051.34
2019-02-15T01:59:06.826Z,1051.37
2019-02-15T02:00:06.809Z,1051.3
2019-02-15T02:01:06.797Z,1051.3
2019-02-15T02:02:06.775Z,1051.29
2019-02-15T02:03:06.761Z,1051.27
2019-02-15T02:04:06.741Z,1051.24
2019-02-15T02:05:06.725Z,1051.25
2019-02-15T02:06:06.709Z,1051.22
2019-02-15T02:07:06.690Z,1051.23
2019-02-15T02:08:06.674Z,1051.19
2019-02-15T02:09:06.658Z,1051.21
2019-02-15T02:10:06.645Z,1051.17
2019-02-15T02:11:06.623Z,1051.17
2019-02-15T02:12:06.607Z,1051.17
2019-02-15T02:13:06.588Z,1051.16
2019-02-15T02:14:06.572Z,1051.14
2019-02-15T02:15:06.555Z,1051.1
2019-02-15T02:16:06.539Z,1051.13
2019-02-15T02:17:06.521Z,1051.18
2019-02-15T02:18:06.505Z,1051.17
2019-02-15T02:19:06.490Z,1051.16
2019-02-15T02:20:06.471Z,1051.16
2019-02-15T02:21:06.455Z,1051.15
2019-02-15T02:22:06.450Z,1051.18
2019-02-15T02:23:06.420Z,1051.13
2019-02-15T02:24:06.403Z,1051.13
2019-02-15T02:25:06.389Z,1051.14
2019-02-15T02:26:06.370Z,1051.07
2019-02-15T02:27:06.354Z,1051.08
2019-02-15T02:28:06.335Z,1051.08
2019-02-15T02:29:06.319Z,1051.1
2019-02-15T02:30:06.303Z,1051.13
2019-02-15T02:31:06.287Z,1051.14
2019-02-15T02:32:06.269Z,1051.12
2019-02-15T02:33:06.252Z,1051.15
2019-02-15T02:34:06.234Z,1051.17
2019-02-15T02:35:06.216Z,1051.2
2019-02-15T02:36:06.201Z,1051.2
2019-02-15T02:37:06.183Z,1051.22
2019-02-15T02:38:06.166Z,1051.22
2019-02-15T02:39:06.151Z,1051.25
2019-02-15T02:40:06.132Z,1051.22
2019-02-15T02:41:06.116Z,1051.23
2019-02-15T02:42:06.098Z,1051.22
2019-02-15T02:43:06.081Z,1051.23
2019-02-15T02:44:06.064Z,1051.27
2019-02-15T02:45:06.048Z,1051.23
2019-02-15T02:46:06.030Z,1051.22
2019-02-15T02:47:06.019Z,1051.23
2019-02-15T02:48:06.005Z,1051.24
2019-02-15T02:49:05.980Z,1051.25
2019-02-15T02:50:05.962Z,1051.27
2019-02-15T02:51:05.981Z,1051.26
2019-02-15T02:52:05.929Z,1051.32
2019-02-15T02:53:05.913Z,1051.3
2019-02-15T02:54:05.897Z,1051.28
2019-02-15T02:55:05.877Z,1051.26
2019-02-15T02:56:05.860Z,1051.27
2019-02-15T02:57:05.844Z,1051.31
2019-02-15T02:58:05.826Z,1051.23
2019-02-15T02:59:05.810Z,1051.26
2019-02-15T03:00:05.794Z,1051.22
2019-02-15T03:01:05.773Z,1051.24
2019-02-15T03:02:05.811Z,1051.24
2019-02-15T03:03:05.742Z,1051.28
2019-02-15T03:04:05.723Z,1051.25
2019-02-15T03:05:05.720Z,1051.29
2019-02-15T03:06:05.689Z,1051.29
2019-02-15T03:07:05.673Z,1051.24
2019-02-15T03:08:05.657Z,1051.28
2019-02-15T03:09:05.638Z,1051.29
2019-02-15T03:10:05.621Z,1051.29
2019-02-15T03:11:05.604Z,1051.28
2019-02-15T03:12:05.587Z,1051.28
2019-02-15T03:13:05.570Z,1051.28
2019-02-15T03:14:11.244Z,1051.29
2019-02-15T03:15:05.539Z,1051.31
2019-02-15T03:16:05.522Z,1051.31
2019-02-15T03:17:05.503Z,1051.34
2019-02-15T03:18:05.485Z,1051.35
2019-02-15T03:19:05.467Z,1051.37
2019-02-15T03:20:05.452Z,1051.33
2019-02-15T03:21:05.436Z,1051.38
2019-02-15T03:22:05.419Z,1051.35
2019-02-15T03:23:05.401Z,1051.36
2019-02-15T03:24:05.381Z,1051.38
2019-02-15T03:25:05.365Z,1051.38
2019-02-15T03:26:05.348Z,1051.4
2019-02-15T03:27:05.336Z,1051.39
2019-02-15T03:28:05.313Z,1051.4
2019-02-15T03:29:05.297Z,1051.41
2019-02-15T03:30:05.280Z,1051.4
2019-02-15T03:31:05.267Z,1051.38
2019-02-15T03:32:05.255Z,1051.44
2019-02-15T03:33:05.256Z,1051.41
2019-02-15T03:34:05.239Z,1051.45
2019-02-15T03:35:05.206Z,1051.41
2019-02-15T03:36:05.176Z,1051.41
2019-02-15T03:37:05.158Z,1051.43
2019-02-15T03:38:05.141Z,1051.41
2019-02-15T03:39:05.123Z,1051.45
2019-02-15T03:40:05.110Z,1051.42
2019-02-15T03:41:05.090Z,1051.42
2019-02-15T03:42:05.071Z,1051.42
2019-02-15T03:43:05.057Z,1051.41
2019-02-15T03:44:05.051Z,1051.42
2019-02-15T03:45:05.021Z,1051.4
2019-02-15T03:46:05.004Z,1051.41
2019-02-15T03:47:04.988Z,1051.45
2019-02-15T03:48:04.972Z,1051.4
2019-02-15T03:49:04.953Z,1051.39
2019-02-15T03:50:05.180Z,1051.35
2019-02-15T03:51:04.919Z,1051.36
2019-02-15T03:52:04.902Z,1051.34
2019-02-15T03:53:04.909Z,1051.36
2019-02-15T03:54:04.868Z,1051.38
2019-02-15T03:55:04.849Z,1051.34
2019-02-15T03:56:04.831Z,1051.32
2019-02-15T03:57:04.814Z,1051.33
2019-02-15T03:58:04.797Z,1051.3
2019-02-15T03:59:04.779Z,1051.33
2019-02-15T04:00:04.773Z,1051.27
2019-02-15T04:01:04.746Z,1051.26
2019-02-15T04:02:04.732Z,1051.25
2019-02-15T04:03:04.711Z,1051.3
2019-02-15T04:04:04.693Z,1051.24
2019-02-15T04:05:04.676Z,1051.28
2019-02-15T04:06:04.663Z,1051.27
2019-02-15T04:07:04.640Z,1051.26
2019-02-15T04:08:04.627Z,1051.24
2019-02-15T04:09:04.605Z,1051.25
2019-02-15T04:10:04.587Z,1051.24
2019-02-15T04:11:04.571Z,1051.24
2019-02-15T04:12:04.558Z,1051.2
2019-02-15T04:13:04.540Z,1051.22
2019-02-15T04:14:04.519Z,1051.17
2019-02-15T04:15:04.503Z,1051.15
2019-02-15T04:16:04.486Z,1051.18
2019-02-15T04:17:04.469Z,1051.15
2019-02-15T04:18:04.452Z,1051.15
2019-02-15T04:19:04.435Z,1051.17
2019-02-15T04:20:04.417Z,1051.18
2019-02-15T04:21:04.402Z,1051.14
2019-02-15T04:22:04.382Z,1051.15
2019-02-15T04:23:04.367Z,1051.16
2019-02-15T04:24:04.353Z,1051.13
2019-02-15T04:25:04.331Z,1051.13
2019-02-15T04:26:04.314Z,1051.12
2019-02-15T04:27:04.298Z,1051.11
2019-02-15T04:28:04.280Z,1051.12
2019-02-15T04:29:04.263Z,1051.1
2019-02-15T04:30:04.246Z,1051.09
2019-02-15T04:31:04.230Z,1051.1
2019-02-15T04:32:04.212Z,1051.15
2019-02-15T04:33:04.210Z,1051.16
2019-02-15T04:34:04.177Z,1051.13
2019-02-15T04:35:04.160Z,1051.18
2019-02-15T04:36:04.152Z,1051.18
2019-02-15T04:37:04.126Z,1051.13
2019-02-15T04:38:04.109Z,1051.14
2019-02-15T04:39:04.092Z,1051.13
2019-02-15T04:40:04.075Z,1051.17
2019-02-15T04:41:04.059Z,1051.16
2019-02-15T04:42:04.043Z,1051.17
2019-02-15T04:43:04.023Z,1051.2
2019-02-15T04:44:04.007Z,1051.19
2019-02-15T04:45:04.000Z,1051.19
2019-02-15T04:46:03.976Z,1051.2
2019-02-15T04:47:03.956Z,1051.17
2019-02-15T04:48:03.938Z,1051.19
2019-02-15T04:49:03.923Z,1051.21
2019-02-15T04:50:03.904Z,1051.2
2019-02-15T04:51:03.887Z,1051.19
2019-02-15T04:52:03.871Z,1051.17
2019-02-15T04:53:03.862Z,1051.2
2019-02-15T04:54:03.836Z,1051.25
2019-02-15T04:55:03.819Z,1051.31
2019-02-15T04:56:03.802Z,1051.34
2019-02-15T04:57:03.784Z,1051.33
2019-02-15T04:58:03.767Z,1051.37
2019-02-15T04:59:03.750Z,1051.36
2019-02-15T05:00:03.737Z,1051.43
2019-02-15T05:01:03.718Z,1051.39
2019-02-15T05:02:03.699Z,1051.4
2019-02-15T05:03:03.683Z,1051.39
2019-02-15T05:04:03.666Z,1051.38
2019-02-15T05:05:03.651Z,1051.41
2019-02-15T05:06:03.631Z,1051.39
2019-02-15T05:07:03.614Z,1051.41
2019-02-15T05:08:03.600Z,1051.42
2019-02-15T05:09:03.580Z,1051.37
2019-02-15T05:10:03.570Z,1051.41
2019-02-15T05:11:03.552Z,1051.42
2019-02-15T05:12:03.527Z,1051.43
2019-02-15T05:13:03.514Z,1051.47
2019-02-15T05:14:03.495Z,1051.47
2019-02-15T05:15:03.476Z,1051.46
2019-02-15T05:16:03.460Z,1051.49
2019-02-15T05:17:03.442Z,1051.49
2019-02-15T05:18:03.427Z,1051.48
2019-02-15T05:19:03.409Z,1051.47
2019-02-15T05:20:03.391Z,1051.49
2019-02-15T05:21:03.372Z,1051.5
2019-02-15T05:22:03.356Z,1051.47
2019-02-15T05:23:03.339Z,1051.46
2019-02-15T05:24:03.324Z,1051.5
2019-02-15T05:25:03.322Z,1051.48
2019-02-15T05:26:03.288Z,1051.52
2019-02-15T05:27:03.270Z,1051.51
2019-02-15T05:28:03.252Z,1051.56
2019-02-15T05:29:03.236Z,1051.55
2019-02-15T05:30:03.228Z,1051.59
2019-02-15T05:31:03.201Z,1051.62
2019-02-15T05:32:03.190Z,1051.62
2019-02-15T05:33:03.169Z,1051.63
2019-02-15T05:34:03.147Z,1051.63
2019-02-15T05:35:03.133Z,1051.64
2019-02-15T05:36:03.114Z,1051.64
2019-02-15T05:37:03.099Z,1051.6
2019-02-15T05:38:03.080Z,1051.64
2019-02-15T05:39:03.061Z,1051.62
2019-02-15T05:40:03.044Z,1051.62
2019-02-15T05:41:03.028Z,1051.61
2019-02-15T05:42:03.010Z,1051.63
2019-02-15T05:43:02.993Z,1051.64
2019-02-15T05:44:02.985Z,1051.62
2019-02-15T05:45:04.307Z,1051.64
2019-02-15T05:46:02.941Z,1051.65
2019-02-15T05:47:02.922Z,1051.62
2019-02-15T05:48:02.908Z,1051.63
2019-02-15T05:49:02.890Z,1051.61
2019-02-15T05:50:02.878Z,1051.59
2019-02-15T05:51:02.854Z,1051.62
2019-02-15T05:52:02.838Z,1051.59
2019-02-15T05:53:02.819Z,1051.61
2019-02-15T05:54:02.801Z,1051.66
2019-02-15T05:55:02.784Z,1051.7
2019-02-15T05:56:02.765Z,1051.7
2019-02-15T05:57:02.749Z,1051.71
2019-02-15T05:58:02.732Z,1051.73
2019-02-15T05:59:02.715Z,1051.72
2019-02-15T06:00:02.726Z,1051.77
2019-02-15T06:01:02.678Z,1051.74
2019-02-15T06:02:02.661Z,1051.75
2019-02-15T06:03:02.646Z,1051.76
2019-02-15T06:04:02.627Z,1051.74
2019-02-15T06:05:02.609Z,1051.71
2019-02-15T06:06:02.591Z,1051.69
2019-02-15T06:07:02.575Z,1051.7
2019-02-15T06:08:02.556Z,1051.67
2019-02-15T06:09:02.540Z,1051.68
2019-02-15T06:10:02.523Z,1051.68
2019-02-15T06:11:07.037Z,1051.71
2019-02-15T06:12:02.495Z,1051.68
2019-02-15T06:13:02.528Z,1051.69
2019-02-15T06:14:02.453Z,1051.71
2019-02-15T06:15:02.435Z,1051.66
2019-02-15T06:16:02.418Z,1051.63
2019-02-15T06:17:02.419Z,1051.63
2019-02-15T06:18:02.382Z,1051.66
2019-02-15T06:19:02.364Z,1051.66
2019-02-15T06:20:02.347Z,1051.67
2019-02-15T06:21:02.355Z,1051.65
2019-02-15T06:22:02.313Z,1051.64
2019-02-15T06:23:02.297Z,1051.67
2019-02-15T06:24:02.277Z,1051.64
2019-02-15T06:25:02.262Z,1051.63
2019-02-15T06:26:02.244Z,1051.65
2019-02-15T06:27:02.223Z,1051.65
2019-02-15T06:28:02.209Z,1051.65
2019-02-15T06:29:02.191Z,1051.62
2019-02-15T06:30:02.174Z,1051.61
2019-02-15T06:31:02.155Z,1051.66
2019-02-15T06:32:02.140Z,1051.61
2019-02-15T06:33:02.121Z,1051.62
2019-02-15T06:34:02.103Z,1051.62
2019-02-15T06:35:02.086Z,1051.62
2019-02-15T06:36:02.068Z,1051.63
2019-02-15T06:37:02.051Z,1051.6
2019-02-15T06:38:02.037Z,1051.58
2019-02-15T06:39:02.016Z,1051.56
2019-02-15T06:40:02.008Z,1051.53
2019-02-15T06:41:01.982Z,1051.49
2019-02-15T06:42:01.964Z,1051.46
2019-02-15T06:43:01.948Z,1051.47
2019-02-15T06:44:01.930Z,1051.4
2019-02-15T06:45:01.913Z,1051.38
2019-02-15T06:46:01.896Z,1051.37
2019-02-15T06:47:01.879Z,1051.35
2019-02-15T06:48:01.861Z,1051.37
2019-02-15T06:49:01.843Z,1051.35
2019-02-15T06:50:01.829Z,1051.35
2019-02-15T06:51:01.811Z,1051.34
2019-02-15T06:52:01.791Z,1051.33
2019-02-15T06:53:01.776Z,1051.28
2019-02-15T06:54:01.757Z,1051.24
2019-02-15T06:55:01.739Z,1051.11
2019-02-15T06:56:01.724Z,1050.89
2019-02-15T06:57:01.706Z,1050.71
2019-02-15T06:58:01.689Z,1050.47
2019-02-15T06:59:01.674Z,1050.29
2019-02-15T07:00:01.669Z,1050.16
2019-02-15T07:01:01.638Z,1049.92
2019-02-15T07:02:01.620Z,1049.77
2019-02-15T07:03:01.606Z,1049.69
2019-02-15T07:04:01.591Z,1049.51
2019-02-15T07:05:01.575Z,1049.42
2019-02-15T07:06:01.559Z,1049.33
2019-02-15T07:07:01.540Z,1049.2
2019-02-15T07:08:01.523Z,1048.97
2019-02-15T07:09:01.508Z,1048.77
2019-02-15T07:10:01.495Z,1048.61
2019-02-15T07:11:01.478Z,1048.46
2019-02-15T07:12:01.508Z,1048.47
2019-02-15T07:13:01.446Z,1048.3
2019-02-15T07:14:01.432Z,1048.21
2019-02-15T07:15:01.417Z,1048.15
2019-02-15T07:16:01.400Z,1048.1
2019-02-15T07:17:01.386Z,1048.03
2019-02-15T07:18:01.372Z,1048.02
2019-02-15T07:19:01.364Z,1047.91
2019-02-15T07:20:01.342Z,1047.81
2019-02-15T07:21:01.328Z,1047.81
2019-02-15T07:22:01.314Z,1047.74
2019-02-15T07:23:01.301Z,1047.76
2019-02-15T07:24:01.286Z,1047.71
2019-02-15T07:25:01.317Z,1047.67
2019-02-15T07:26:01.257Z,1047.66
2019-02-15T07:27:01.244Z,1047.63
2019-02-15T07:28:01.229Z,1047.56
2019-02-15T07:29:01.217Z,1047.45
2019-02-15T07:30:01.204Z,1047.36
2019-02-15T07:31:01.189Z,1047.18
2019-02-15T07:32:01.183Z,1047.07
2019-02-15T07:33:01.162Z,1047
2019-02-15T07:34:01.151Z,1046.94
2019-02-15T07:35:01.136Z,1046.8
2019-02-15T07:36:01.153Z,1046.68
2019-02-15T07:37:01.112Z,1046.55
2019-02-15T07:38:01.098Z,1046.51
2019-02-15T07:39:01.086Z,1046.39
2019-02-15T07:40:01.083Z,1046.31
2019-02-15T07:41:01.060Z,1046.23
2019-02-15T07:42:01.047Z,1046.17
2019-02-15T07:43:01.035Z,1046.09
2019-02-15T07:44:01.023Z,1046.01
2019-02-15T07:45:01.011Z,1045.98
2019-02-15T07:46:00.998Z,1045.94
2019-02-15T07:47:00.986Z,1045.98
2019-02-15T07:48:00.975Z,1046.11
2019-02-15T07:49:00.965Z,1046.3
2019-02-15T07:50:00.959Z,1046.57
2019-02-15T07:51:09.246Z,1046.83
2019-02-15T07:52:00.931Z,1047.01
2019-02-15T07:53:00.916Z,1047.19
2019-02-15T07:54:00.903Z,1047.42
2019-02-15T07:55:00.892Z,1047.58
2019-02-15T07:56:00.880Z,1047.75
2019-02-15T07:57:00.868Z,1047.89
2019-02-15T07:58:00.856Z,1047.96
2019-02-15T07:59:00.844Z,1048.09
2019-02-15T08:00:01.046Z,1048.23
2019-02-15T08:01:00.819Z,1048.31
2019-02-15T08:02:01.960Z,1048.38
2019-02-15T08:03:00.796Z,1048.41
2019-02-15T08:04:00.785Z,1048.49
2019-02-15T08:05:00.768Z,1048.54
2019-02-15T08:06:00.756Z,1048.55
2019-02-15T08:07:00.745Z,1048.59
2019-02-15T08:08:00.732Z,1048.64
2019-02-15T08:09:00.720Z,1048.67
2019-02-15T08:10:00.706Z,1048.71
2019-02-15T08:11:00.693Z,1048.77
2019-02-15T08:12:00.692Z,1048.8
2019-02-15T08:13:00.669Z,1048.82
2019-02-15T08:14:00.657Z,1048.82
2019-02-15T08:15:00.640Z,1048.85
2019-02-15T08:16:02.630Z,1048.83
2019-02-15T08:17:00.615Z,1048.86
2019-02-15T08:18:00.600Z,1048.89
2019-02-15T08:19:00.586Z,1048.91
2019-02-15T08:20:00.573Z,1048.9
2019-02-15T08:21:00.561Z,1048.91
2019-02-15T08:22:00.546Z,1048.89
2019-02-15T08:23:00.533Z,1048.95
2019-02-15T08:24:00.519Z,1048.95
2019-02-15T08:25:02.689Z,1048.98
2019-02-15T08:26:00.492Z,1048.95
2019-02-15T08:27:00.478Z,1048.99
2019-02-15T08:28:00.466Z,1048.97
2019-02-15T08:29:00.452Z,1048.94
2019-02-15T08:30:00.437Z,1048.97
2019-02-15T08:31:00.424Z,1048.95
2019-02-15T08:32:00.410Z,1048.95
2019-02-15T08:33:00.401Z,1048.95
2019-02-15T08:34:00.383Z,1048.93
2019-02-15T08:35:00.369Z,1048.87
2019-02-15T08:36:00.357Z,1048.87
2019-02-15T08:37:00.342Z,1048.83
2019-02-15T08:38:00.328Z,1048.87
2019-02-15T08:39:00.315Z,1048.86
2019-02-15T08:40:00.348Z,1048.89
2019-02-15T08:41:00.286Z,1048.88
2019-02-15T08:42:03.720Z,1048.88
2019-02-15T08:43:00.260Z,1048.87
2019-02-15T08:44:00.246Z,1048.86
2019-02-15T08:45:00.254Z,1048.81
2019-02-15T08:46:01.639Z,1048.8
2019-02-15T08:47:00.206Z,1048.78
2019-02-15T08:48:00.192Z,1048.78
2019-02-15T08:49:00.178Z,1048.74
2019-02-15T08:50:00.194Z,1048.72
2019-02-15T08:51:00.163Z,1048.71
2019-02-15T08:52:00.137Z,1048.73
2019-02-15T08:53:00.125Z,1048.67
2019-02-15T08:54:00.111Z,1048.7
2019-02-15T08:55:00.275Z,1048.66
2019-02-15T08:56:00.099Z,1048.69
2019-02-15T08:57:00.075Z,1048.66
2019-02-15T08:58:00.057Z,1048.66
2019-02-15T08:59:01.980Z,1048.63
2019-02-15T09:00:00.030Z,1048.58
2019-02-15T09:01:00.017Z,1048.56
2019-02-15T09:02:00.004Z,1048.56
2019-02-15T09:02:59.989Z,1048.59
2019-02-15T09:03:59.977Z,1048.54
2019-02-15T09:05:01.861Z,1048.55
2019-02-15T09:05:59.950Z,1048.51
2019-02-15T09:06:59.937Z,1048.49
2019-02-15T09:07:59.924Z,1048.43
2019-02-15T09:08:59.914Z,1048.43
2019-02-15T09:09:59.897Z,1048.4
2019-02-15T09:10:59.884Z,1048.4
2019-02-15T09:11:59.873Z,1048.39
2019-02-15T09:12:59.859Z,1048.38
2019-02-15T09:13:59.846Z,1048.37
2019-02-15T09:14:59.897Z,1048.32
2019-02-15T09:15:59.818Z,1048.3
2019-02-15T09:16:59.806Z,1048.28
2019-02-15T09:17:59.793Z,1048.24
2019-02-15T09:18:59.780Z,1048.23
2019-02-15T09:19:59.768Z,1048.24
2019-02-15T09:20:59.753Z,1048.21
2019-02-15T09:21:59.742Z,1048.2
2019-02-15T09:22:59.728Z,1048.19
2019-02-15T09:23:59.726Z,1048.12
2019-02-15T09:24:59.703Z,1048.13
2019-02-15T09:25:59.691Z,1048.09
2019-02-15T09:26:59.685Z,1048.01
2019-02-15T09:27:59.664Z,1048.01
2019-02-15T09:28:59.655Z,1048
2019-02-15T09:29:59.641Z,1047.96
2019-02-15T09:30:59.628Z,1047.92
2019-02-15T09:31:59.616Z,1047.91
2019-02-15T09:32:59.603Z,1047.9
2019-02-15T09:33:59.590Z,1047.91
2019-02-15T09:34:59.579Z,1047.86
2019-02-15T09:35:59.566Z,1047.86
2019-02-15T09:36:59.555Z,1047.83
2019-02-15T09:37:59.552Z,1047.86
2019-02-15T09:38:59.528Z,1047.83
2019-02-15T09:39:59.516Z,1047.8
2019-02-15T09:40:59.506Z,1047.8
2019-02-15T09:41:59.493Z,1047.75
2019-02-15T09:42:59.480Z,1047.73
2019-02-15T09:43:59.468Z,1047.7
2019-02-15T09:44:59.456Z,1047.63
2019-02-15T09:45:59.443Z,1047.61
2019-02-15T09:46:59.432Z,1047.55
2019-02-15T09:47:59.421Z,1047.58
2019-02-15T09:48:59.414Z,1047.52
2019-02-15T09:49:59.398Z,1047.46
2019-02-15T09:50:59.386Z,1047.44
2019-02-15T09:51:59.374Z,1047.42
2019-02-15T09:52:59.363Z,1047.35
2019-02-15T09:53:59.350Z,1047.28
2019-02-15T09:54:59.339Z,1047.23
2019-02-15T09:55:59.328Z,1047.24
2019-02-15T09:56:59.315Z,1047.24
2019-02-15T09:57:59.307Z,1047.25
2019-02-15T09:58:59.294Z,1047.21
2019-02-15T09:59:59.281Z,1047.19
2019-02-15T10:00:59.269Z,1047.14
2019-02-15T10:01:59.257Z,1047.11
2019-02-15T10:02:59.246Z,1047.05
2019-02-15T10:03:59.235Z,1047.06
2019-02-15T10:04:59.221Z,1047.03
2019-02-15T10:05:59.214Z,1046.99
2019-02-15T10:06:59.201Z,1046.93
2019-02-15T10:07:59.190Z,1046.89
2019-02-15T10:08:59.179Z,1046.87
2019-02-15T10:09:59.169Z,1046.84
2019-02-15T10:10:59.155Z,1046.84
2019-02-15T10:11:59.143Z,1046.88
2019-02-15T10:12:59.135Z,1046.83
2019-02-15T10:13:59.122Z,1046.83
2019-02-15T10:14:59.111Z,1046.78
2019-02-15T10:15:59.099Z,1046.81
2019-02-15T10:16:59.089Z,1046.71
2019-02-15T10:17:59.076Z,1046.69
2019-02-15T10:18:59.066Z,1046.67
2019-02-15T10:19:59.055Z,1046.68
2019-02-15T10:20:59.046Z,1046.63
2019-02-15T10:21:59.034Z,1046.58
2019-02-15T10:22:59.022Z,1046.54
2019-02-15T10:23:59.011Z,1046.51
2019-02-15T10:24:59.011Z,1046.53
2019-02-15T10:25:58.991Z,1046.52
2019-02-15T10:26:58.980Z,1046.51
2019-02-15T10:27:58.969Z,1046.51
2019-02-15T10:28:58.957Z,1046.44
2019-02-15T10:29:58.946Z,1046.43
2019-02-15T10:30:58.937Z,1046.39
2019-02-15T10:31:58.928Z,1046.36
2019-02-15T10:32:58.916Z,1046.33
2019-02-15T10:33:58.904Z,1046.29
2019-02-15T10:34:58.895Z,1046.26
2019-02-15T10:35:58.884Z,1046.24
2019-02-15T10:36:58.877Z,1046.17
2019-02-15T10:37:58.863Z,1046.15
2019-02-15T10:38:58.854Z,1046.14
2019-02-15T10:39:58.843Z,1046.13
2019-02-15T10:40:58.832Z,1046.15
2019-02-15T10:41:58.820Z,1046.12
2019-02-15T10:42:58.811Z,1046.11
2019-02-15T10:43:58.801Z,1046.12
2019-02-15T10:44:58.791Z,1046.11
2019-02-15T10:45:58.781Z,1046.08
2019-02-15T10:46:58.772Z,1046.08
2019-02-15T10:47:58.762Z,1046.02
2019-02-15T10:48:58.750Z,1046.02
2019-02-15T10:49:58.745Z,1046.04
2019-02-15T10:50:58.731Z,1046.04
2019-02-15T10:51:58.720Z,1046
2019-02-15T10:52:58.709Z,1045.99
2019-02-15T10:54:00.079Z,1045.98
2019-02-15T10:54:58.690Z,1045.96
2019-02-15T10:55:58.679Z,1045.97
2019-02-15T10:56:58.670Z,1045.94
2019-02-15T10:57:58.660Z,1045.92
2019-02-15T10:58:58.650Z,1045.87
2019-02-15T10:59:58.639Z,1045.87
2019-02-15T11:00:58.632Z,1045.87
2019-02-15T11:01:58.619Z,1045.87
2019-02-15T11:02:58.612Z,1045.82
2019-02-15T11:03:58.599Z,1045.81
2019-02-15T11:04:58.590Z,1045.82
2019-02-15T11:05:58.583Z,1045.8
2019-02-15T11:06:58.570Z,1045.79
2019-02-15T11:07:58.560Z,1045.79
2019-02-15T11:08:58.551Z,1045.68
2019-02-15T11:09:58.541Z,1045.69
2019-02-15T11:10:58.537Z,1045.7
2019-02-15T11:11:58.521Z,1045.63
2019-02-15T11:12:58.517Z,1045.63
2019-02-15T11:13:58.500Z,1045.61
2019-02-15T11:14:58.490Z,1045.61
2019-02-15T11:15:58.481Z,1045.56
2019-02-15T11:16:58.473Z,1045.56
2019-02-15T11:17:58.463Z,1045.56
2019-02-15T11:18:58.460Z,1045.54
2019-02-15T11:19:58.449Z,1045.53
2019-02-15T11:20:58.434Z,1045.55
2019-02-15T11:21:58.424Z,1045.55
2019-02-15T11:22:58.416Z,1045.52
2019-02-15T11:23:58.407Z,1045.47
2019-02-15T11:24:58.397Z,1045.46
2019-02-15T11:25:58.385Z,1045.44
2019-02-15T11:26:58.377Z,1045.42
2019-02-15T11:27:58.368Z,1045.37
2019-02-15T11:28:58.359Z,1045.34
2019-02-15T11:29:58.348Z,1045.32
2019-02-15T11:30:58.340Z,1045.29
2019-02-15T11:31:58.329Z,1045.27
2019-02-15T11:32:58.321Z,1045.26
2019-02-15T11:33:58.311Z,1045.26
2019-02-15T11:34:58.302Z,1045.23
2019-02-15T11:35:58.292Z,1045.22
2019-02-15T11:36:58.282Z,1045.2
2019-02-15T11:37:58.273Z,1045.18
2019-02-15T11:38:58.266Z,1045.19
2019-02-15T11:39:58.255Z,1045.13
2019-02-15T11:40:58.246Z,1045.12
2019-02-15T11:41:58.236Z,1045.12
2019-02-15T11:42:58.228Z,1045.08
2019-02-15T11:43:58.217Z,1045.05
2019-02-15T11:44:58.207Z,1045.05
2019-02-15T11:45:58.199Z,1045.01
2019-02-15T11:46:58.189Z,1044.95
2019-02-15T11:47:58.181Z,1044.93
2019-02-15T11:48:58.171Z,1044.98
2019-02-15T11:49:58.162Z,1044.89
2019-02-15T11:50:58.152Z,1044.89
2019-02-15T11:51:58.143Z,1044.88
2019-02-15T11:52:58.135Z,1044.85
2019-02-15T11:53:58.659Z,1044.9
2019-02-15T11:54:58.116Z,1044.87
2019-02-15T11:55:58.107Z,1044.83
2019-02-15T11:56:58.102Z,1044.86
2019-02-15T11:57:58.088Z,1044.85
2019-02-15T11:58:58.079Z,1044.81
2019-02-15T11:59:58.070Z,1044.8
2019-02-15T12:00:58.061Z,1044.78
2019-02-15T12:02:05.683Z,1044.75
2019-02-15T12:02:58.044Z,1044.76
2019-02-15T12:03:58.036Z,1044.74
2019-02-15T12:04:58.026Z,1044.74
2019-02-15T12:05:58.017Z,1044.73
2019-02-15T12:06:58.010Z,1044.72
2019-02-15T12:07:57.999Z,1044.7